Terminal Aerodrome Forecast
Issued by NWS Cleveland, OH

Home | Current Version | Previous Version | Graphics & Text | Print | Product List | Glossary On
Versions: 1 2 3 4 5 6 7 8 9 10 11 12 13 14 15 16 17 18 19 20 21 22 23 24 25 26 27 28 29 30 31 32 33
000
FTUS41 KCLE 012143 AAC
TAFCLE
TAF AMD
KCLE 012143Z 0122/0224 35008KT P6SM VCTS SCT050CB
      TEMPO 0122/0124 5SM -TSRA BKN035CB
     FM020000 33005KT P6SM SCT050
      TEMPO 0210/0213 4SM BR
     FM021400 23005KT P6SM SKC
     FM021800 33008KT P6SM SCT050=

USA.gov is the U.S. government's official web portal to all federal, state and local government web resources and services.